sensor_id;sensor_type;location;lat;lon;timestamp;temperature;humidity
22917;DHT22;11624;53.250;7.456;2023-06-22T00:01:33;25.09;52.49
22917;DHT22;11624;53.250;7.456;2023-06-22T00:04:01;25.08;52.56
22917;DHT22;11624;53.250;7.456;2023-06-22T00:06:30;25.08;52.62
22917;DHT22;11624;53.250;7.456;2023-06-22T00:08:58;25.08;52.77
22917;DHT22;11624;53.250;7.456;2023-06-22T00:11:27;25.12;52.74
22917;DHT22;11624;53.250;7.456;2023-06-22T00:13:55;25.10;52.77
22917;DHT22;11624;53.250;7.456;2023-06-22T00:16:23;25.13;52.58
22917;DHT22;11624;53.250;7.456;2023-06-22T00:18:51;25.17;52.46
22917;DHT22;11624;53.250;7.456;2023-06-22T00:21:19;25.14;52.50
22917;DHT22;11624;53.250;7.456;2023-06-22T00:23:48;25.13;52.52
22917;DHT22;11624;53.250;7.456;2023-06-22T00:26:16;25.12;52.51
22917;DHT22;11624;53.250;7.456;2023-06-22T00:28:45;25.10;52.51
22917;DHT22;11624;53.250;7.456;2023-06-22T00:31:14;25.09;52.38
22917;DHT22;11624;53.250;7.456;2023-06-22T00:33:42;25.05;52.39
22917;DHT22;11624;53.250;7.456;2023-06-22T00:36:10;25.02;52.46
22917;DHT22;11624;53.250;7.456;2023-06-22T00:38:40;24.97;52.43
22917;DHT22;11624;53.250;7.456;2023-06-22T00:41:08;24.91;52.37
22917;DHT22;11624;53.250;7.456;2023-06-22T00:43:36;24.84;52.36
22917;DHT22;11624;53.250;7.456;2023-06-22T00:46:05;24.84;52.27
22917;DHT22;11624;53.250;7.456;2023-06-22T00:48:35;24.76;52.43
22917;DHT22;11624;53.250;7.456;2023-06-22T00:51:04;24.68;52.65
22917;DHT22;11624;53.250;7.456;2023-06-22T00:53:33;24.62;52.68
22917;DHT22;11624;53.250;7.456;2023-06-22T00:56:04;24.56;52.69
22917;DHT22;11624;53.250;7.456;2023-06-22T00:58:36;24.56;52.64
22917;DHT22;11624;53.250;7.456;2023-06-22T01:01:05;24.53;52.68
22917;DHT22;11624;53.250;7.456;2023-06-22T01:03:33;24.50;52.65
22917;DHT22;11624;53.250;7.456;2023-06-22T01:06:08;24.47;52.27
22917;DHT22;11624;53.250;7.456;2023-06-22T01:08:42;24.42;52.37
22917;DHT22;11624;53.250;7.456;2023-06-22T01:11:17;24.34;52.36
22917;DHT22;11624;53.250;7.456;2023-06-22T01:13:52;24.34;52.35
22917;DHT22;11624;53.250;7.456;2023-06-22T01:16:29;24.33;52.65
22917;DHT22;11624;53.250;7.456;2023-06-22T01:19:07;24.33;52.13
22917;DHT22;11624;53.250;7.456;2023-06-22T01:21:37;24.25;52.92
22917;DHT22;11624;53.250;7.456;2023-06-22T01:24:19;24.17;52.25
22917;DHT22;11624;53.250;7.456;2023-06-22T01:27:00;24.13;52.30
22917;DHT22;11624;53.250;7.456;2023-06-22T01:29:35;24.14;52.77
22917;DHT22;11624;53.250;7.456;2023-06-22T01:32:05;24.12;53.11
22917;DHT22;11624;53.250;7.456;2023-06-22T01:34:36;24.11;53.07
22917;DHT22;11624;53.250;7.456;2023-06-22T01:37:07;24.10;52.95
22917;DHT22;11624;53.250;7.456;2023-06-22T01:39:36;24.08;52.95
22917;DHT22;11624;53.250;7.456;2023-06-22T01:42:05;24.06;52.95
22917;DHT22;11624;53.250;7.456;2023-06-22T01:44:36;24.06;52.71
22917;DHT22;11624;53.250;7.456;2023-06-22T01:47:06;24.05;52.69
22917;DHT22;11624;53.250;7.456;2023-06-22T01:49:35;24.02;52.80
22917;DHT22;11624;53.250;7.456;2023-06-22T01:52:05;24.01;52.84
22917;DHT22;11624;53.250;7.456;2023-06-22T01:54:33;23.97;53.04
22917;DHT22;11624;53.250;7.456;2023-06-22T01:57:02;23.96;52.93
22917;DHT22;11624;53.250;7.456;2023-06-22T01:59:34;23.95;52.78
22917;DHT22;11624;53.250;7.456;2023-06-22T02:02:07;23.91;52.67
22917;DHT22;11624;53.250;7.456;2023-06-22T02:04:41;23.90;52.95
22917;DHT22;11624;53.250;7.456;2023-06-22T02:07:14;23.92;53.21
22917;DHT22;11624;53.250;7.456;2023-06-22T02:09:45;23.92;53.14
22917;DHT22;11624;53.250;7.456;2023-06-22T02:12:17;23.92;52.87
22917;DHT22;11624;53.250;7.456;2023-06-22T02:14:47;23.90;53.21
22917;DHT22;11624;53.250;7.456;2023-06-22T02:17:17;23.90;53.09
22917;DHT22;11624;53.250;7.456;2023-06-22T02:19:46;23.86;53.36
22917;DHT22;11624;53.250;7.456;2023-06-22T02:22:14;23.83;53.43
22917;DHT22;11624;53.250;7.456;2023-06-22T02:24:43;23.82;53.51
22917;DHT22;11624;53.250;7.456;2023-06-22T02:27:11;23.80;53.65
22917;DHT22;11624;53.250;7.456;2023-06-22T02:29:40;23.80;53.52
22917;DHT22;11624;53.250;7.456;2023-06-22T02:32:08;23.80;53.41
22917;DHT22;11624;53.250;7.456;2023-06-22T02:34:39;23.79;53.27
22917;DHT22;11624;53.250;7.456;2023-06-22T02:37:07;23.77;53.30
22917;DHT22;11624;53.250;7.456;2023-06-22T02:39:39;23.75;53.27
22917;DHT22;11624;53.250;7.456;2023-06-22T02:42:07;23.72;53.24
22917;DHT22;11624;53.250;7.456;2023-06-22T02:44:37;23.67;53.39
22917;DHT22;11624;53.250;7.456;2023-06-22T02:47:05;23.65;53.41
22917;DHT22;11624;53.250;7.456;2023-06-22T02:49:33;23.65;53.30
22917;DHT22;11624;53.250;7.456;2023-06-22T02:52:04;23.58;53.27
22917;DHT22;11624;53.250;7.456;2023-06-22T02:54:32;23.51;53.36
22917;DHT22;11624;53.250;7.456;2023-06-22T02:57:00;23.41;53.62
22917;DHT22;11624;53.250;7.456;2023-06-22T02:59:30;23.29;53.87
22917;DHT22;11624;53.250;7.456;2023-06-22T03:02:06;23.21;53.84
22917;DHT22;11624;53.250;7.456;2023-06-22T03:04:35;23.11;54.06
22917;DHT22;11624;53.250;7.456;2023-06-22T03:07:05;23.05;54.14
22917;DHT22;11624;53.250;7.456;2023-06-22T03:09:34;22.97;54.39
22917;DHT22;11624;53.250;7.456;2023-06-22T03:12:02;22.93;54.46
22917;DHT22;11624;53.250;7.456;2023-06-22T03:14:39;22.87;54.58
22917;DHT22;11624;53.250;7.456;2023-06-22T03:17:07;22.82;54.63
22917;DHT22;11624;53.250;7.456;2023-06-22T03:19:35;22.77;54.75
22917;DHT22;11624;53.250;7.456;2023-06-22T03:22:05;22.75;54.81
22917;DHT22;11624;53.250;7.456;2023-06-22T03:24:34;22.70;54.92
22917;DHT22;11624;53.250;7.456;2023-06-22T03:27:04;22.67;54.93
22917;DHT22;11624;53.250;7.456;2023-06-22T03:29:33;22.64;55.12
22917;DHT22;11624;53.250;7.456;2023-06-22T03:32:02;22.61;55.16
22917;DHT22;11624;53.250;7.456;2023-06-22T03:34:32;22.61;55.26
22917;DHT22;11624;53.250;7.456;2023-06-22T03:37:01;22.64;55.24
22917;DHT22;11624;53.250;7.456;2023-06-22T03:39:31;22.65;55.39
22917;DHT22;11624;53.250;7.456;2023-06-22T03:41:59;22.66;55.50
22917;DHT22;11624;53.250;7.456;2023-06-22T03:44:27;22.70;55.45
22917;DHT22;11624;53.250;7.456;2023-06-22T03:46:55;22.69;55.51
22917;DHT22;11624;53.250;7.456;2023-06-22T03:49:23;22.77;55.42
22917;DHT22;11624;53.250;7.456;2023-06-22T03:51:51;22.71;55.74
22917;DHT22;11624;53.250;7.456;2023-06-22T03:54:20;22.69;56.03
22917;DHT22;11624;53.250;7.456;2023-06-22T03:56:49;22.72;56.04
22917;DHT22;11624;53.250;7.456;2023-06-22T03:59:17;22.75;56.09
22917;DHT22;11624;53.250;7.456;2023-06-22T04:01:45;22.78;56.09
22917;DHT22;11624;53.250;7.456;2023-06-22T04:04:14;22.79;56.20
22917;DHT22;11624;53.250;7.456;2023-06-22T04:06:42;22.83;56.26
22917;DHT22;11624;53.250;7.456;2023-06-22T04:09:10;22.87;56.27
22917;DHT22;11624;53.250;7.456;2023-06-22T04:11:38;22.90;56.42
22917;DHT22;11624;53.250;7.456;2023-06-22T04:14:08;22.86;56.70
22917;DHT22;11624;53.250;7.456;2023-06-22T04:16:36;22.87;56.79
22917;DHT22;11624;53.250;7.456;2023-06-22T04:19:04;22.93;56.77
22917;DHT22;11624;53.250;7.456;2023-06-22T04:21:32;22.98;56.71
22917;DHT22;11624;53.250;7.456;2023-06-22T04:24:00;23.08;56.52
22917;DHT22;11624;53.250;7.456;2023-06-22T04:26:28;23.13;56.48
22917;DHT22;11624;53.250;7.456;2023-06-22T04:28:56;23.13;56.55
22917;DHT22;11624;53.250;7.456;2023-06-22T04:31:26;23.11;56.71
22917;DHT22;11624;53.250;7.456;2023-06-22T04:34:00;23.17;56.74
22917;DHT22;11624;53.250;7.456;2023-06-22T04:36:34;23.17;56.76
22917;DHT22;11624;53.250;7.456;2023-06-22T04:39:05;23.22;56.71
22917;DHT22;11624;53.250;7.456;2023-06-22T04:41:33;23.26;56.73
22917;DHT22;11624;53.250;7.456;2023-06-22T04:44:09;23.28;56.69
22917;DHT22;11624;53.250;7.456;2023-06-22T04:46:39;23.32;56.69
22917;DHT22;11624;53.250;7.456;2023-06-22T04:49:08;23.37;56.71
22917;DHT22;11624;53.250;7.456;2023-06-22T04:51:39;23.42;56.61
22917;DHT22;11624;53.250;7.456;2023-06-22T04:54:08;23.44;56.55
22917;DHT22;11624;53.250;7.456;2023-06-22T04:56:36;23.49;56.53
22917;DHT22;11624;53.250;7.456;2023-06-22T04:59:07;23.52;56.48
22917;DHT22;11624;53.250;7.456;2023-06-22T05:01:41;23.60;56.22
22917;DHT22;11624;53.250;7.456;2023-06-22T05:04:09;23.65;56.22
22917;DHT22;11624;53.250;7.456;2023-06-22T05:06:37;23.68;56.20
22917;DHT22;11624;53.250;7.456;2023-06-22T05:09:07;23.74;56.08
22917;DHT22;11624;53.250;7.456;2023-06-22T05:11:35;23.77;55.94
22917;DHT22;11624;53.250;7.456;2023-06-22T05:14:03;23.80;55.90
22917;DHT22;11624;53.250;7.456;2023-06-22T05:16:31;23.79;56.18
22917;DHT22;11624;53.250;7.456;2023-06-22T05:19:01;23.85;56.05
22917;DHT22;11624;53.250;7.456;2023-06-22T05:21:31;23.91;55.91
22917;DHT22;11624;53.250;7.456;2023-06-22T05:23:59;23.96;55.89
22917;DHT22;11624;53.250;7.456;2023-06-22T05:26:30;24.01;55.67
22917;DHT22;11624;53.250;7.456;2023-06-22T05:28:59;24.10;55.65
22917;DHT22;11624;53.250;7.456;2023-06-22T05:31:27;24.05;55.71
22917;DHT22;11624;53.250;7.456;2023-06-22T05:33:56;24.17;55.60
22917;DHT22;11624;53.250;7.456;2023-06-22T05:36:25;24.29;55.55
22917;DHT22;11624;53.250;7.456;2023-06-22T05:38:56;24.40;55.51
22917;DHT22;11624;53.250;7.456;2023-06-22T05:41:25;24.53;55.24
22917;DHT22;11624;53.250;7.456;2023-06-22T05:43:53;24.61;54.78
22917;DHT22;11624;53.250;7.456;2023-06-22T05:46:21;24.66;54.46
22917;DHT22;11624;53.250;7.456;2023-06-22T05:48:49;24.73;54.30
22917;DHT22;11624;53.250;7.456;2023-06-22T05:51:17;24.80;54.21
22917;DHT22;11624;53.250;7.456;2023-06-22T05:53:46;24.89;54.31
22917;DHT22;11624;53.250;7.456;2023-06-22T05:56:16;25.05;54.26
22917;DHT22;11624;53.250;7.456;2023-06-22T05:58:45;25.18;54.01
22917;DHT22;11624;53.250;7.456;2023-06-22T06:01:14;25.30;53.77
22917;DHT22;11624;53.250;7.456;2023-06-22T06:03:42;25.45;52.86
22917;DHT22;11624;53.250;7.456;2023-06-22T06:06:11;25.53;52.61
22917;DHT22;11624;53.250;7.456;2023-06-22T06:08:39;25.60;52.08
22917;DHT22;11624;53.250;7.456;2023-06-22T06:11:09;25.71;52.24
22917;DHT22;11624;53.250;7.456;2023-06-22T06:13:37;25.79;52.05
22917;DHT22;11624;53.250;7.456;2023-06-22T06:16:05;25.95;51.80
22917;DHT22;11624;53.250;7.456;2023-06-22T06:18:33;26.02;51.11
22917;DHT22;11624;53.250;7.456;2023-06-22T06:21:01;26.15;51.03
22917;DHT22;11624;53.250;7.456;2023-06-22T06:23:29;26.27;50.63
22917;DHT22;11624;53.250;7.456;2023-06-22T06:25:57;26.37;50.32
22917;DHT22;11624;53.250;7.456;2023-06-22T06:28:27;26.45;49.78
22917;DHT22;11624;53.250;7.456;2023-06-22T06:30:55;26.56;49.23
22917;DHT22;11624;53.250;7.456;2023-06-22T06:33:23;26.66;48.63
22917;DHT22;11624;53.250;7.456;2023-06-22T06:35:52;26.75;47.73
22917;DHT22;11624;53.250;7.456;2023-06-22T06:38:22;26.69;46.95
22917;DHT22;11624;53.250;7.456;2023-06-22T06:40:50;26.68;47.12
22917;DHT22;11624;53.250;7.456;2023-06-22T06:43:18;26.83;47.06
22917;DHT22;11624;53.250;7.456;2023-06-22T06:45:48;26.96;47.15
22917;DHT22;11624;53.250;7.456;2023-06-22T06:48:18;27.10;46.97
22917;DHT22;11624;53.250;7.456;2023-06-22T06:50:46;27.21;46.62
22917;DHT22;11624;53.250;7.456;2023-06-22T06:53:14;27.36;46.99
22917;DHT22;11624;53.250;7.456;2023-06-22T06:55:42;27.37;45.32
22917;DHT22;11624;53.250;7.456;2023-06-22T06:58:12;27.42;45.98
22917;DHT22;11624;53.250;7.456;2023-06-22T07:00:40;27.55;45.30
22917;DHT22;11624;53.250;7.456;2023-06-22T07:03:11;27.69;44.93
22917;DHT22;11624;53.250;7.456;2023-06-22T07:05:39;27.73;44.88
22917;DHT22;11624;53.250;7.456;2023-06-22T07:08:07;27.83;45.04
22917;DHT22;11624;53.250;7.456;2023-06-22T07:10:36;27.93;44.58
22917;DHT22;11624;53.250;7.456;2023-06-22T07:13:04;28.14;44.89
22917;DHT22;11624;53.250;7.456;2023-06-22T07:15:32;28.30;43.59
22917;DHT22;11624;53.250;7.456;2023-06-22T07:18:00;28.47;43.62
22917;DHT22;11624;53.250;7.456;2023-06-22T07:20:29;28.77;42.88
22917;DHT22;11624;53.250;7.456;2023-06-22T07:22:58;29.05;42.97
22917;DHT22;11624;53.250;7.456;2023-06-22T07:25:26;29.34;41.59
22917;DHT22;11624;53.250;7.456;2023-06-22T07:27:58;29.67;40.92
22917;DHT22;11624;53.250;7.456;2023-06-22T07:30:28;30.05;41.04
22917;DHT22;11624;53.250;7.456;2023-06-22T07:32:57;30.41;39.96
22917;DHT22;11624;53.250;7.456;2023-06-22T07:35:32;30.72;39.30
22917;DHT22;11624;53.250;7.456;2023-06-22T07:38:00;30.91;37.97
22917;DHT22;11624;53.250;7.456;2023-06-22T07:40:32;31.00;37.58
22917;DHT22;11624;53.250;7.456;2023-06-22T07:43:01;31.23;37.81
22917;DHT22;11624;53.250;7.456;2023-06-22T07:45:29;31.52;37.41
22917;DHT22;11624;53.250;7.456;2023-06-22T07:47:57;31.72;36.82
22917;DHT22;11624;53.250;7.456;2023-06-22T07:50:25;31.76;36.09
22917;DHT22;11624;53.250;7.456;2023-06-22T07:52:55;31.88;35.09
22917;DHT22;11624;53.250;7.456;2023-06-22T07:55:23;32.02;35.14
22917;DHT22;11624;53.250;7.456;2023-06-22T07:57:51;32.03;35.05
22917;DHT22;11624;53.250;7.456;2023-06-22T08:00:20;32.05;34.86
22917;DHT22;11624;53.250;7.456;2023-06-22T08:02:48;32.05;34.18
22917;DHT22;11624;53.250;7.456;2023-06-22T08:05:16;32.05;34.79
22917;DHT22;11624;53.250;7.456;2023-06-22T08:07:48;32.00;35.38
22917;DHT22;11624;53.250;7.456;2023-06-22T08:10:18;32.19;35.44
22917;DHT22;11624;53.250;7.456;2023-06-22T08:12:46;32.43;35.83
22917;DHT22;11624;53.250;7.456;2023-06-22T08:15:15;32.61;35.22
22917;DHT22;11624;53.250;7.456;2023-06-22T08:17:44;32.79;34.08
22917;DHT22;11624;53.250;7.456;2023-06-22T08:20:12;32.94;34.20
22917;DHT22;11624;53.250;7.456;2023-06-22T08:22:41;33.18;34.15
22917;DHT22;11624;53.250;7.456;2023-06-22T08:25:10;33.30;33.85
22917;DHT22;11624;53.250;7.456;2023-06-22T08:27:45;33.44;32.95
22917;DHT22;11624;53.250;7.456;2023-06-22T08:30:14;33.53;33.54
22917;DHT22;11624;53.250;7.456;2023-06-22T08:32:42;33.62;32.48
22917;DHT22;11624;53.250;7.456;2023-06-22T08:35:10;33.34;32.66
22917;DHT22;11624;53.250;7.456;2023-06-22T08:37:38;33.27;32.97
22917;DHT22;11624;53.250;7.456;2023-06-22T08:40:08;33.35;33.52
22917;DHT22;11624;53.250;7.456;2023-06-22T08:42:42;33.45;32.67
22917;DHT22;11624;53.250;7.456;2023-06-22T08:45:10;33.50;32.80
22917;DHT22;11624;53.250;7.456;2023-06-22T08:47:39;33.22;32.93
22917;DHT22;11624;53.250;7.456;2023-06-22T08:50:08;33.37;32.77
22917;DHT22;11624;53.250;7.456;2023-06-22T08:52:37;33.13;33.02
22917;DHT22;11624;53.250;7.456;2023-06-22T08:55:09;33.26;32.93
22917;DHT22;11624;53.250;7.456;2023-06-22T08:57:37;33.56;34.39
22917;DHT22;11624;53.250;7.456;2023-06-22T09:00:09;33.96;33.36
22917;DHT22;11624;53.250;7.456;2023-06-22T09:02:43;34.06;32.10
22917;DHT22;11624;53.250;7.456;2023-06-22T09:05:11;34.00;32.41
22917;DHT22;11624;53.250;7.456;2023-06-22T09:07:40;34.12;32.81
22917;DHT22;11624;53.250;7.456;2023-06-22T09:10:08;33.91;32.22
22917;DHT22;11624;53.250;7.456;2023-06-22T09:12:36;33.88;32.97
22917;DHT22;11624;53.250;7.456;2023-06-22T09:15:05;33.74;32.51
22917;DHT22;11624;53.250;7.456;2023-06-22T09:17:40;33.76;33.34
22917;DHT22;11624;53.250;7.456;2023-06-22T09:20:09;33.80;32.69
22917;DHT22;11624;53.250;7.456;2023-06-22T09:22:38;33.99;32.66
22917;DHT22;11624;53.250;7.456;2023-06-22T09:25:07;34.10;32.82
22917;DHT22;11624;53.250;7.456;2023-06-22T09:27:35;34.32;32.29
22917;DHT22;11624;53.250;7.456;2023-06-22T09:30:04;34.47;32.64
22917;DHT22;11624;53.250;7.456;2023-06-22T09:32:33;34.61;31.62
22917;DHT22;11624;53.250;7.456;2023-06-22T09:35:04;34.65;30.60
22917;DHT22;11624;53.250;7.456;2023-06-22T09:37:33;34.57;32.12
22917;DHT22;11624;53.250;7.456;2023-06-22T09:40:02;34.80;31.77
22917;DHT22;11624;53.250;7.456;2023-06-22T09:42:35;34.96;31.19
22917;DHT22;11624;53.250;7.456;2023-06-22T09:45:03;35.03;30.84
22917;DHT22;11624;53.250;7.456;2023-06-22T09:47:32;35.20;31.26
22917;DHT22;11624;53.250;7.456;2023-06-22T09:50:00;35.22;30.38
22917;DHT22;11624;53.250;7.456;2023-06-22T09:52:29;35.22;30.59
22917;DHT22;11624;53.250;7.456;2023-06-22T09:55:14;35.22;30.16
22917;DHT22;11624;53.250;7.456;2023-06-22T09:57:43;35.40;29.98
22917;DHT22;11624;53.250;7.456;2023-06-22T10:00:12;35.28;30.64
22917;DHT22;11624;53.250;7.456;2023-06-22T10:02:41;35.24;29.92
22917;DHT22;11624;53.250;7.456;2023-06-22T10:05:10;35.39;29.74
22917;DHT22;11624;53.250;7.456;2023-06-22T10:07:40;35.50;29.16
22917;DHT22;11624;53.250;7.456;2023-06-22T10:10:12;35.44;29.93
22917;DHT22;11624;53.250;7.456;2023-06-22T10:12:45;35.51;29.68
22917;DHT22;11624;53.250;7.456;2023-06-22T10:15:14;35.37;29.42
22917;DHT22;11624;53.250;7.456;2023-06-22T10:17:43;35.40;29.57
22917;DHT22;11624;53.250;7.456;2023-06-22T10:20:11;35.52;29.02
22917;DHT22;11624;53.250;7.456;2023-06-22T10:22:42;35.63;29.49
22917;DHT22;11624;53.250;7.456;2023-06-22T10:25:12;35.41;28.97
22917;DHT22;11624;53.250;7.456;2023-06-22T10:27:40;35.49;29.66
22917;DHT22;11624;53.250;7.456;2023-06-22T10:30:10;35.79;28.93
22917;DHT22;11624;53.250;7.456;2023-06-22T10:32:40;36.04;29.00
22917;DHT22;11624;53.250;7.456;2023-06-22T10:35:09;36.22;28.71
22917;DHT22;11624;53.250;7.456;2023-06-22T10:37:42;36.32;27.95
22917;DHT22;11624;53.250;7.456;2023-06-22T10:40:12;36.24;27.20
22917;DHT22;11624;53.250;7.456;2023-06-22T10:42:41;35.98;28.03
22917;DHT22;11624;53.250;7.456;2023-06-22T10:45:10;36.13;27.57
22917;DHT22;11624;53.250;7.456;2023-06-22T10:47:38;36.16;27.50
22917;DHT22;11624;53.250;7.456;2023-06-22T10:50:09;36.28;27.20
22917;DHT22;11624;53.250;7.456;2023-06-22T10:52:38;36.37;27.93
22917;DHT22;11624;53.250;7.456;2023-06-22T10:55:08;36.61;28.13
22917;DHT22;11624;53.250;7.456;2023-06-22T10:57:37;36.84;27.16
22917;DHT22;11624;53.250;7.456;2023-06-22T11:00:07;37.00;26.36
22917;DHT22;11624;53.250;7.456;2023-06-22T11:02:38;37.10;27.51
22917;DHT22;11624;53.250;7.456;2023-06-22T11:05:07;37.16;27.03
22917;DHT22;11624;53.250;7.456;2023-06-22T11:07:35;37.13;26.49
22917;DHT22;11624;53.250;7.456;2023-06-22T11:10:09;36.95;26.88
22917;DHT22;11624;53.250;7.456;2023-06-22T11:12:38;36.97;26.65
22917;DHT22;11624;53.250;7.456;2023-06-22T11:15:07;37.07;26.59
22917;DHT22;11624;53.250;7.456;2023-06-22T11:17:35;37.10;26.15
22917;DHT22;11624;53.250;7.456;2023-06-22T11:20:04;36.60;26.41
22917;DHT22;11624;53.250;7.456;2023-06-22T11:22:37;36.64;27.38
22917;DHT22;11624;53.250;7.456;2023-06-22T11:25:07;36.95;27.88
22917;DHT22;11624;53.250;7.456;2023-06-22T11:27:36;37.33;27.22
22917;DHT22;11624;53.250;7.456;2023-06-22T11:30:06;37.48;26.49
22917;DHT22;11624;53.250;7.456;2023-06-22T11:32:35;37.17;25.91
22917;DHT22;11624;53.250;7.456;2023-06-22T11:35:03;37.05;26.33
22917;DHT22;11624;53.250;7.456;2023-06-22T11:37:32;37.15;26.31
22917;DHT22;11624;53.250;7.456;2023-06-22T11:40:00;37.18;26.53
22917;DHT22;11624;53.250;7.456;2023-06-22T11:42:33;37.31;26.76
22917;DHT22;11624;53.250;7.456;2023-06-22T11:45:05;37.66;25.78
22917;DHT22;11624;53.250;7.456;2023-06-22T11:47:33;37.88;25.17
22917;DHT22;11624;53.250;7.456;2023-06-22T11:50:01;38.11;24.96
22917;DHT22;11624;53.250;7.456;2023-06-22T11:52:30;38.22;23.85
22917;DHT22;11624;53.250;7.456;2023-06-22T11:54:58;37.99;25.13
22917;DHT22;11624;53.250;7.456;2023-06-22T11:57:26;37.94;24.74
22917;DHT22;11624;53.250;7.456;2023-06-22T11:59:54;38.04;25.39
22917;DHT22;11624;53.250;7.456;2023-06-22T12:02:24;38.38;24.56
22917;DHT22;11624;53.250;7.456;2023-06-22T12:04:52;38.54;23.86
22917;DHT22;11624;53.250;7.456;2023-06-22T12:07:23;38.52;23.34
22917;DHT22;11624;53.250;7.456;2023-06-22T12:09:51;38.29;23.91
22917;DHT22;11624;53.250;7.456;2023-06-22T12:12:19;38.05;24.27
22917;DHT22;11624;53.250;7.456;2023-06-22T12:14:47;37.79;24.75
22917;DHT22;11624;53.250;7.456;2023-06-22T12:17:15;37.61;24.91
22917;DHT22;11624;53.250;7.456;2023-06-22T12:19:44;37.74;25.11
22917;DHT22;11624;53.250;7.456;2023-06-22T12:22:12;37.99;24.17
22917;DHT22;11624;53.250;7.456;2023-06-22T12:24:41;37.74;24.21
22917;DHT22;11624;53.250;7.456;2023-06-22T12:27:09;37.65;23.94
22917;DHT22;11624;53.250;7.456;2023-06-22T12:29:37;37.55;23.88
22917;DHT22;11624;53.250;7.456;2023-06-22T12:32:05;37.57;24.61
22917;DHT22;11624;53.250;7.456;2023-06-22T12:34:34;37.58;25.72
22917;DHT22;11624;53.250;7.456;2023-06-22T12:37:03;37.81;24.65
22917;DHT22;11624;53.250;7.456;2023-06-22T12:39:32;37.82;24.90
22917;DHT22;11624;53.250;7.456;2023-06-22T12:42:00;37.56;24.68
22917;DHT22;11624;53.250;7.456;2023-06-22T12:44:28;37.38;25.15
22917;DHT22;11624;53.250;7.456;2023-06-22T12:46:56;37.45;25.39
22917;DHT22;11624;53.250;7.456;2023-06-22T12:49:24;37.81;25.52
22917;DHT22;11624;53.250;7.456;2023-06-22T12:51:53;38.24;24.65
22917;DHT22;11624;53.250;7.456;2023-06-22T12:54:22;38.39;24.65
22917;DHT22;11624;53.250;7.456;2023-06-22T12:56:50;38.66;24.28
22917;DHT22;11624;53.250;7.456;2023-06-22T12:59:20;38.58;23.27
22917;DHT22;11624;53.250;7.456;2023-06-22T13:01:48;38.47;23.91
22917;DHT22;11624;53.250;7.456;2023-06-22T13:04:16;38.40;24.50
22917;DHT22;11624;53.250;7.456;2023-06-22T13:06:45;38.31;24.30
22917;DHT22;11624;53.250;7.456;2023-06-22T13:09:19;38.10;24.62
22917;DHT22;11624;53.250;7.456;2023-06-22T13:11:49;37.80;24.33
22917;DHT22;11624;53.250;7.456;2023-06-22T13:14:19;37.78;25.62
22917;DHT22;11624;53.250;7.456;2023-06-22T13:16:47;37.69;25.38
22917;DHT22;11624;53.250;7.456;2023-06-22T13:19:15;37.50;25.10
22917;DHT22;11624;53.250;7.456;2023-06-22T13:21:43;37.14;25.28
22917;DHT22;11624;53.250;7.456;2023-06-22T13:24:11;36.86;25.63
22917;DHT22;11624;53.250;7.456;2023-06-22T13:26:39;36.85;26.69
22917;DHT22;11624;53.250;7.456;2023-06-22T13:29:08;36.84;26.63
22917;DHT22;11624;53.250;7.456;2023-06-22T13:31:37;36.66;26.42
22917;DHT22;11624;53.250;7.456;2023-06-22T13:34:05;36.45;27.04
22917;DHT22;11624;53.250;7.456;2023-06-22T13:36:33;36.30;26.89
22917;DHT22;11624;53.250;7.456;2023-06-22T13:39:02;36.15;27.45
22917;DHT22;11624;53.250;7.456;2023-06-22T13:41:30;36.02;28.26
22917;DHT22;11624;53.250;7.456;2023-06-22T13:43:58;35.85;27.95
22917;DHT22;11624;53.250;7.456;2023-06-22T13:46:28;35.65;27.87
22917;DHT22;11624;53.250;7.456;2023-06-22T13:48:56;35.26;28.36
22917;DHT22;11624;53.250;7.456;2023-06-22T13:51:24;35.10;29.04
22917;DHT22;11624;53.250;7.456;2023-06-22T13:53:53;35.04;29.22
22917;DHT22;11624;53.250;7.456;2023-06-22T13:56:21;34.88;29.40
22917;DHT22;11624;53.250;7.456;2023-06-22T13:58:49;34.75;29.92
22917;DHT22;11624;53.250;7.456;2023-06-22T14:01:17;34.67;29.97
22917;DHT22;11624;53.250;7.456;2023-06-22T14:03:48;34.64;30.77
22917;DHT22;11624;53.250;7.456;2023-06-22T14:06:16;34.65;31.41
22917;DHT22;11624;53.250;7.456;2023-06-22T14:08:44;34.50;31.22
22917;DHT22;11624;53.250;7.456;2023-06-22T14:11:12;34.41;31.82
22917;DHT22;11624;53.250;7.456;2023-06-22T14:13:40;34.37;31.83
22917;DHT22;11624;53.250;7.456;2023-06-22T14:16:09;34.17;31.63
22917;DHT22;11624;53.250;7.456;2023-06-22T14:18:37;34.14;31.97
22917;DHT22;11624;53.250;7.456;2023-06-22T14:21:07;34.00;31.67
22917;DHT22;11624;53.250;7.456;2023-06-22T14:23:35;33.70;32.09
22917;DHT22;11624;53.250;7.456;2023-06-22T14:26:04;33.45;32.65
22917;DHT22;11624;53.250;7.456;2023-06-22T14:28:32;33.28;33.03
22917;DHT22;11624;53.250;7.456;2023-06-22T14:31:00;33.11;32.40
22917;DHT22;11624;53.250;7.456;2023-06-22T14:33:28;32.97;32.89
22917;DHT22;11624;53.250;7.456;2023-06-22T14:35:56;32.97;33.28
22917;DHT22;11624;53.250;7.456;2023-06-22T14:38:26;32.89;32.76
22917;DHT22;11624;53.250;7.456;2023-06-22T14:40:54;32.78;33.10
22917;DHT22;11624;53.250;7.456;2023-06-22T14:43:43;32.60;33.74
22917;DHT22;11624;53.250;7.456;2023-06-22T14:46:15;32.42;33.57
22917;DHT22;11624;53.250;7.456;2023-06-22T14:48:43;32.35;33.57
22917;DHT22;11624;53.250;7.456;2023-06-22T14:51:12;32.27;33.67
22917;DHT22;11624;53.250;7.456;2023-06-22T14:53:45;32.18;33.68
22917;DHT22;11624;53.250;7.456;2023-06-22T14:56:13;32.18;34.08
22917;DHT22;11624;53.250;7.456;2023-06-22T14:58:43;32.14;34.12
22917;DHT22;11624;53.250;7.456;2023-06-22T15:01:13;32.04;34.85
22917;DHT22;11624;53.250;7.456;2023-06-22T15:03:41;31.98;34.56
22917;DHT22;11624;53.250;7.456;2023-06-22T15:06:09;31.72;34.31
22917;DHT22;11624;53.250;7.456;2023-06-22T15:08:38;31.59;34.05
22917;DHT22;11624;53.250;7.456;2023-06-22T15:11:08;31.41;34.76
22917;DHT22;11624;53.250;7.456;2023-06-22T15:13:38;31.34;34.70
22917;DHT22;11624;53.250;7.456;2023-06-22T15:16:08;31.27;35.31
22917;DHT22;11624;53.250;7.456;2023-06-22T15:18:36;31.29;35.77
22917;DHT22;11624;53.250;7.456;2023-06-22T15:21:04;31.25;34.96
22917;DHT22;11624;53.250;7.456;2023-06-22T15:23:33;31.22;35.49
22917;DHT22;11624;53.250;7.456;2023-06-22T15:26:03;31.20;35.65
22917;DHT22;11624;53.250;7.456;2023-06-22T15:28:33;31.14;34.49
22917;DHT22;11624;53.250;7.456;2023-06-22T15:31:04;30.98;34.12
22917;DHT22;11624;53.250;7.456;2023-06-22T15:33:32;30.80;33.78
22917;DHT22;11624;53.250;7.456;2023-06-22T15:36:00;30.68;34.31
22917;DHT22;11624;53.250;7.456;2023-06-22T15:38:31;30.61;34.21
22917;DHT22;11624;53.250;7.456;2023-06-22T15:40:59;30.55;34.40
22917;DHT22;11624;53.250;7.456;2023-06-22T15:43:28;30.47;35.02